<?xml version="1.0" encoding="UTF-8"?>
<gpx xmlns="http://www.topografix.com/GPX/1/1" xmlns:xsi="http://www.w3.org/2001/XMLSchema-instance" version="1.1" xsi:schemaLocation="http://www.topografix.com/GPX/1/1 http://www.topografix.com/GPX/1/1/gpx.xsd">
  <metadata>
    <name>Bolton Landing Triathlon 2026 - Sprint Aquabike</name>
  </metadata>
  <trk>
    <name>Bolton Landing Triathlon 2026 - Sprint Aquabike</name>
    <trkseg>
      <trkpt lat="43.562526" lon="-73.653186">
        <ele>105.174905</ele>
        <time>2026-06-13T08:15:00.000Z</time>
      </trkpt>
      <trkpt lat="43.562597" lon="-73.653155">
        <ele>105.174904</ele>
        <time>2026-06-13T08:15:01.000Z</time>
      </trkpt>
      <trkpt lat="43.562985" lon="-73.653066">
        <ele>105.1749</ele>
        <time>2026-06-13T08:15:05.000Z</time>
      </trkpt>
      <trkpt lat="43.563307" lon="-73.653061">
        <ele>105.174904</ele>
        <time>2026-06-13T08:15:09.000Z</time>
      </trkpt>
      <trkpt lat="43.56348" lon="-73.653072">
        <ele>105.757898</ele>
        <time>2026-06-13T08:15:11.000Z</time>
      </trkpt>
      <trkpt lat="43.564032" lon="-73.65316">
        <ele>110.609888</ele>
        <time>2026-06-13T08:15:17.000Z</time>
      </trkpt>
      <trkpt lat="43.564247" lon="-73.65319">
        <ele>112.504805</ele>
        <time>2026-06-13T08:15:19.000Z</time>
      </trkpt>
      <trkpt lat="43.564886" lon="-73.653338">
        <ele>118.100976</ele>
        <time>2026-06-13T08:15:26.000Z</time>
      </trkpt>
      <trkpt lat="43.565416" lon="-73.6536">
        <ele>122.228872</ele>
        <time>2026-06-13T08:15:32.000Z</time>
      </trkpt>
      <trkpt lat="43.565826" lon="-73.653838">
        <ele>124.604524</ele>
        <time>2026-06-13T08:15:37.000Z</time>
      </trkpt>
      <trkpt lat="43.566139" lon="-73.653947">
        <ele>126.409874</ele>
        <time>2026-06-13T08:15:41.000Z</time>
      </trkpt>
      <trkpt lat="43.566741" lon="-73.654024">
        <ele>129.636623</ele>
        <time>2026-06-13T08:15:48.000Z</time>
      </trkpt>
      <trkpt lat="43.567012" lon="-73.65401">
        <ele>130.912705</ele>
        <time>2026-06-13T08:15:51.000Z</time>
      </trkpt>
      <trkpt lat="43.567231" lon="-73.653945">
        <ele>131.509334</ele>
        <time>2026-06-13T08:15:53.000Z</time>
      </trkpt>
      <trkpt lat="43.567894" lon="-73.653693">
        <ele>133.449002</ele>
        <time>2026-06-13T08:16:01.000Z</time>
      </trkpt>
      <trkpt lat="43.568553" lon="-73.653427">
        <ele>135.410611</ele>
        <time>2026-06-13T08:16:09.000Z</time>
      </trkpt>
      <trkpt lat="43.569019" lon="-73.65332">
        <ele>137.897863</ele>
        <time>2026-06-13T08:16:14.000Z</time>
      </trkpt>
      <trkpt lat="43.569106" lon="-73.653316">
        <ele>138.506882</ele>
        <time>2026-06-13T08:16:15.000Z</time>
      </trkpt>
      <trkpt lat="43.569626" lon="-73.653358">
        <ele>141.620279</ele>
        <time>2026-06-13T08:16:21.000Z</time>
      </trkpt>
      <trkpt lat="43.569926" lon="-73.653411">
        <ele>143.493664</ele>
        <time>2026-06-13T08:16:24.000Z</time>
      </trkpt>
      <trkpt lat="43.570158" lon="-73.653518">
        <ele>144.993609</ele>
        <time>2026-06-13T08:16:27.000Z</time>
      </trkpt>
      <trkpt lat="43.571106" lon="-73.653922">
        <ele>152.109117</ele>
        <time>2026-06-13T08:16:38.000Z</time>
      </trkpt>
      <trkpt lat="43.571454" lon="-73.654085">
        <ele>154.757073</ele>
        <time>2026-06-13T08:16:42.000Z</time>
      </trkpt>
      <trkpt lat="43.572389" lon="-73.654462">
        <ele>161.77918</ele>
        <time>2026-06-13T08:16:53.000Z</time>
      </trkpt>
      <trkpt lat="43.57292" lon="-73.654491">
        <ele>165.118313</ele>
        <time>2026-06-13T08:16:59.000Z</time>
      </trkpt>
      <trkpt lat="43.573463" lon="-73.654459">
        <ele>168.567916</ele>
        <time>2026-06-13T08:17:05.000Z</time>
      </trkpt>
      <trkpt lat="43.574507" lon="-73.654294">
        <ele>174.217914</ele>
        <time>2026-06-13T08:17:17.000Z</time>
      </trkpt>
      <trkpt lat="43.575437" lon="-73.654141">
        <ele>178.590045</ele>
        <time>2026-06-13T08:17:27.000Z</time>
      </trkpt>
      <trkpt lat="43.575632" lon="-73.65411">
        <ele>179.552878</ele>
        <time>2026-06-13T08:17:29.000Z</time>
      </trkpt>
      <trkpt lat="43.57617" lon="-73.65392">
        <ele>180.030221</ele>
        <time>2026-06-13T08:17:35.000Z</time>
      </trkpt>
      <trkpt lat="43.576661" lon="-73.653684">
        <ele>180.160145</ele>
        <time>2026-06-13T08:17:41.000Z</time>
      </trkpt>
      <trkpt lat="43.577221" lon="-73.653367">
        <ele>180.310615</ele>
        <time>2026-06-13T08:17:48.000Z</time>
      </trkpt>
      <trkpt lat="43.577845" lon="-73.653091">
        <ele>180.047561</ele>
        <time>2026-06-13T08:17:55.000Z</time>
      </trkpt>
      <trkpt lat="43.579001" lon="-73.652724">
        <ele>179.24191</ele>
        <time>2026-06-13T08:18:08.000Z</time>
      </trkpt>
      <trkpt lat="43.580518" lon="-73.652468">
        <ele>179.300002</ele>
        <time>2026-06-13T08:18:25.000Z</time>
      </trkpt>
      <trkpt lat="43.581036" lon="-73.652314">
        <ele>178.873782</ele>
        <time>2026-06-13T08:18:31.000Z</time>
      </trkpt>
      <trkpt lat="43.581421" lon="-73.652219">
        <ele>177.25185</ele>
        <time>2026-06-13T08:18:35.000Z</time>
      </trkpt>
      <trkpt lat="43.581647" lon="-73.652104">
        <ele>176.18241</ele>
        <time>2026-06-13T08:18:38.000Z</time>
      </trkpt>
      <trkpt lat="43.582208" lon="-73.651684">
        <ele>173.459961</ele>
        <time>2026-06-13T08:18:45.000Z</time>
      </trkpt>
      <trkpt lat="43.582634" lon="-73.651247">
        <ele>171.029227</ele>
        <time>2026-06-13T08:18:51.000Z</time>
      </trkpt>
      <trkpt lat="43.582836" lon="-73.65095">
        <ele>169.221616</ele>
        <time>2026-06-13T08:18:54.000Z</time>
      </trkpt>
      <trkpt lat="43.583241" lon="-73.650191">
        <ele>165.034671</ele>
        <time>2026-06-13T08:19:02.000Z</time>
      </trkpt>
      <trkpt lat="43.583813" lon="-73.648719">
        <ele>158.498151</ele>
        <time>2026-06-13T08:19:15.000Z</time>
      </trkpt>
      <trkpt lat="43.583818" lon="-73.648691">
        <ele>158.423037</ele>
        <time>2026-06-13T08:19:15.000Z</time>
      </trkpt>
      <trkpt lat="43.584043" lon="-73.648069">
        <ele>156.134052</ele>
        <time>2026-06-13T08:19:21.000Z</time>
      </trkpt>
      <trkpt lat="43.584179" lon="-73.647743">
        <ele>154.916095</ele>
        <time>2026-06-13T08:19:24.000Z</time>
      </trkpt>
      <trkpt lat="43.584402" lon="-73.647215">
        <ele>152.936316</ele>
        <time>2026-06-13T08:19:29.000Z</time>
      </trkpt>
      <trkpt lat="43.584659" lon="-73.64674">
        <ele>151.504334</ele>
        <time>2026-06-13T08:19:34.000Z</time>
      </trkpt>
      <trkpt lat="43.584973" lon="-73.646303">
        <ele>150.040444</ele>
        <time>2026-06-13T08:19:39.000Z</time>
      </trkpt>
      <trkpt lat="43.585038" lon="-73.646196">
        <ele>149.711806</ele>
        <time>2026-06-13T08:19:40.000Z</time>
      </trkpt>
      <trkpt lat="43.585258" lon="-73.645927">
        <ele>148.745752</ele>
        <time>2026-06-13T08:19:43.000Z</time>
      </trkpt>
      <trkpt lat="43.585702" lon="-73.645482">
        <ele>146.996906</ele>
        <time>2026-06-13T08:19:49.000Z</time>
      </trkpt>
      <trkpt lat="43.586023" lon="-73.64523">
        <ele>145.83419</ele>
        <time>2026-06-13T08:19:53.000Z</time>
      </trkpt>
      <trkpt lat="43.586431" lon="-73.644971">
        <ele>144.495409</ele>
        <time>2026-06-13T08:19:58.000Z</time>
      </trkpt>
      <trkpt lat="43.586865" lon="-73.644679">
        <ele>142.971622</ele>
        <time>2026-06-13T08:20:03.000Z</time>
      </trkpt>
      <trkpt lat="43.587588" lon="-73.644111">
        <ele>141.305306</ele>
        <time>2026-06-13T08:20:12.000Z</time>
      </trkpt>
      <trkpt lat="43.588629" lon="-73.643253">
        <ele>141.335762</ele>
        <time>2026-06-13T08:20:25.000Z</time>
      </trkpt>
      <trkpt lat="43.589091" lon="-73.642872">
        <ele>141.212097</ele>
        <time>2026-06-13T08:20:31.000Z</time>
      </trkpt>
      <trkpt lat="43.58947" lon="-73.642561">
        <ele>140.990791</ele>
        <time>2026-06-13T08:20:36.000Z</time>
      </trkpt>
      <trkpt lat="43.590068" lon="-73.642108">
        <ele>140.640201</ele>
        <time>2026-06-13T08:20:44.000Z</time>
      </trkpt>
      <trkpt lat="43.590265" lon="-73.641983">
        <ele>140.523145</ele>
        <time>2026-06-13T08:20:46.000Z</time>
      </trkpt>
      <trkpt lat="43.590712" lon="-73.641781">
        <ele>139.169021</ele>
        <time>2026-06-13T08:20:51.000Z</time>
      </trkpt>
      <trkpt lat="43.591662" lon="-73.641438">
        <ele>134.257066</ele>
        <time>2026-06-13T08:21:02.000Z</time>
      </trkpt>
      <trkpt lat="43.591908" lon="-73.641321">
        <ele>132.918148</ele>
        <time>2026-06-13T08:21:05.000Z</time>
      </trkpt>
      <trkpt lat="43.59217" lon="-73.641153">
        <ele>131.546878</ele>
        <time>2026-06-13T08:21:08.000Z</time>
      </trkpt>
      <trkpt lat="43.593242" lon="-73.640267">
        <ele>129.238074</ele>
        <time>2026-06-13T08:21:22.000Z</time>
      </trkpt>
      <trkpt lat="43.595018" lon="-73.638965">
        <ele>127.231406</ele>
        <time>2026-06-13T08:21:44.000Z</time>
      </trkpt>
      <trkpt lat="43.595593" lon="-73.63853">
        <ele>127.155693</ele>
        <time>2026-06-13T08:21:51.000Z</time>
      </trkpt>
      <trkpt lat="43.595935" lon="-73.638216">
        <ele>127.382982</ele>
        <time>2026-06-13T08:21:56.000Z</time>
      </trkpt>
      <trkpt lat="43.59598" lon="-73.63817">
        <ele>127.418259</ele>
        <time>2026-06-13T08:21:57.000Z</time>
      </trkpt>
      <trkpt lat="43.5965" lon="-73.637551">
        <ele>127.795103</ele>
        <time>2026-06-13T08:22:05.000Z</time>
      </trkpt>
      <trkpt lat="43.596931" lon="-73.637154">
        <ele>128.159733</ele>
        <time>2026-06-13T08:22:11.000Z</time>
      </trkpt>
      <trkpt lat="43.59741" lon="-73.636831">
        <ele>128.727838</ele>
        <time>2026-06-13T08:22:17.000Z</time>
      </trkpt>
      <trkpt lat="43.598028" lon="-73.636641">
        <ele>129.387506</ele>
        <time>2026-06-13T08:22:24.000Z</time>
      </trkpt>
      <trkpt lat="43.59968" lon="-73.636238">
        <ele>129.924146</ele>
        <time>2026-06-13T08:22:43.000Z</time>
      </trkpt>
      <trkpt lat="43.60012" lon="-73.635962">
        <ele>129.950403</ele>
        <time>2026-06-13T08:22:48.000Z</time>
      </trkpt>
      <trkpt lat="43.600576" lon="-73.635586">
        <ele>129.317107</ele>
        <time>2026-06-13T08:22:54.000Z</time>
      </trkpt>
      <trkpt lat="43.600907" lon="-73.635336">
        <ele>128.757894</ele>
        <time>2026-06-13T08:22:58.000Z</time>
      </trkpt>
      <trkpt lat="43.601996" lon="-73.634893">
        <ele>126.560451</ele>
        <time>2026-06-13T08:23:11.000Z</time>
      </trkpt>
      <trkpt lat="43.60247" lon="-73.63459">
        <ele>123.950966</ele>
        <time>2026-06-13T08:23:17.000Z</time>
      </trkpt>
      <trkpt lat="43.602815" lon="-73.634298">
        <ele>121.896454</ele>
        <time>2026-06-13T08:23:22.000Z</time>
      </trkpt>
      <trkpt lat="43.603083" lon="-73.633978">
        <ele>120.087864</ele>
        <time>2026-06-13T08:23:26.000Z</time>
      </trkpt>
      <trkpt lat="43.603435" lon="-73.633396">
        <ele>117.563653</ele>
        <time>2026-06-13T08:23:32.000Z</time>
      </trkpt>
      <trkpt lat="43.603664" lon="-73.632848">
        <ele>115.901787</ele>
        <time>2026-06-13T08:23:37.000Z</time>
      </trkpt>
      <trkpt lat="43.603856" lon="-73.631996">
        <ele>113.549735</ele>
        <time>2026-06-13T08:23:44.000Z</time>
      </trkpt>
      <trkpt lat="43.603903" lon="-73.631757">
        <ele>112.846462</ele>
        <time>2026-06-13T08:23:46.000Z</time>
      </trkpt>
      <trkpt lat="43.604005" lon="-73.631303">
        <ele>111.587854</ele>
        <time>2026-06-13T08:23:50.000Z</time>
      </trkpt>
      <trkpt lat="43.604255" lon="-73.630539">
        <ele>109.333767</ele>
        <time>2026-06-13T08:23:57.000Z</time>
      </trkpt>
      <trkpt lat="43.604468" lon="-73.63015">
        <ele>107.975872</ele>
        <time>2026-06-13T08:24:01.000Z</time>
      </trkpt>
      <trkpt lat="43.604754" lon="-73.629774">
        <ele>106.549133</ele>
        <time>2026-06-13T08:24:05.000Z</time>
      </trkpt>
      <trkpt lat="43.605584" lon="-73.628817">
        <ele>104.798078</ele>
        <time>2026-06-13T08:24:17.000Z</time>
      </trkpt>
      <trkpt lat="43.605768" lon="-73.628608">
        <ele>104.745896</ele>
        <time>2026-06-13T08:24:20.000Z</time>
      </trkpt>
      <trkpt lat="43.606151" lon="-73.628333">
        <ele>104.650243</ele>
        <time>2026-06-13T08:24:25.000Z</time>
      </trkpt>
      <trkpt lat="43.606554" lon="-73.628123">
        <ele>104.556393</ele>
        <time>2026-06-13T08:24:30.000Z</time>
      </trkpt>
      <trkpt lat="43.606791" lon="-73.628005">
        <ele>105.042376</ele>
        <time>2026-06-13T08:24:33.000Z</time>
      </trkpt>
      <trkpt lat="43.607014" lon="-73.627935">
        <ele>105.639014</ele>
        <time>2026-06-13T08:24:36.000Z</time>
      </trkpt>
      <trkpt lat="43.607598" lon="-73.627865">
        <ele>107.083302</ele>
        <time>2026-06-13T08:24:43.000Z</time>
      </trkpt>
      <trkpt lat="43.608374" lon="-73.62795">
        <ele>108.986169</ele>
        <time>2026-06-13T08:24:52.000Z</time>
      </trkpt>
      <trkpt lat="43.609379" lon="-73.628172">
        <ele>111.707456</ele>
        <time>2026-06-13T08:25:03.000Z</time>
      </trkpt>
      <trkpt lat="43.609741" lon="-73.628151">
        <ele>112.719966</ele>
        <time>2026-06-13T08:25:07.000Z</time>
      </trkpt>
      <trkpt lat="43.609969" lon="-73.628127">
        <ele>113.340035</ele>
        <time>2026-06-13T08:25:10.000Z</time>
      </trkpt>
      <trkpt lat="43.610256" lon="-73.628017">
        <ele>113.967731</ele>
        <time>2026-06-13T08:25:13.000Z</time>
      </trkpt>
      <trkpt lat="43.610602" lon="-73.627819">
        <ele>114.450039</ele>
        <time>2026-06-13T08:25:17.000Z</time>
      </trkpt>
      <trkpt lat="43.610879" lon="-73.627597">
        <ele>114.842769</ele>
        <time>2026-06-13T08:25:21.000Z</time>
      </trkpt>
      <trkpt lat="43.611139" lon="-73.627265">
        <ele>115.297873</ele>
        <time>2026-06-13T08:25:25.000Z</time>
      </trkpt>
      <trkpt lat="43.611285" lon="-73.627048">
        <ele>115.581154</ele>
        <time>2026-06-13T08:25:27.000Z</time>
      </trkpt>
      <trkpt lat="43.612635" lon="-73.624521">
        <ele>118.308287</ele>
        <time>2026-06-13T08:25:52.000Z</time>
      </trkpt>
      <trkpt lat="43.613231" lon="-73.623684">
        <ele>119.151034</ele>
        <time>2026-06-13T08:26:01.000Z</time>
      </trkpt>
      <trkpt lat="43.614462" lon="-73.622279">
        <ele>120.949295</ele>
        <time>2026-06-13T08:26:19.000Z</time>
      </trkpt>
      <trkpt lat="43.61496" lon="-73.621735">
        <ele>121.777071</ele>
        <time>2026-06-13T08:26:26.000Z</time>
      </trkpt>
      <trkpt lat="43.615042" lon="-73.62163">
        <ele>121.921164</ele>
        <time>2026-06-13T08:26:27.000Z</time>
      </trkpt>
      <trkpt lat="43.616108" lon="-73.620419">
        <ele>122.346686</ele>
        <time>2026-06-13T08:26:42.000Z</time>
      </trkpt>
      <trkpt lat="43.616277" lon="-73.62016">
        <ele>122.336455</ele>
        <time>2026-06-13T08:26:45.000Z</time>
      </trkpt>
      <trkpt lat="43.61646" lon="-73.61963">
        <ele>122.318901</ele>
        <time>2026-06-13T08:26:50.000Z</time>
      </trkpt>
      <trkpt lat="43.616488" lon="-73.619371">
        <ele>122.1293</ele>
        <time>2026-06-13T08:26:52.000Z</time>
      </trkpt>
      <trkpt lat="43.616486" lon="-73.618871">
        <ele>121.448839</ele>
        <time>2026-06-13T08:26:56.000Z</time>
      </trkpt>
      <trkpt lat="43.616424" lon="-73.618576">
        <ele>121.001285</ele>
        <time>2026-06-13T08:26:58.000Z</time>
      </trkpt>
      <trkpt lat="43.616313" lon="-73.618274">
        <ele>120.527984</ele>
        <time>2026-06-13T08:27:01.000Z</time>
      </trkpt>
      <trkpt lat="43.616143" lon="-73.617996">
        <ele>120.035828</ele>
        <time>2026-06-13T08:27:04.000Z</time>
      </trkpt>
      <trkpt lat="43.615883" lon="-73.617703">
        <ele>119.384099</ele>
        <time>2026-06-13T08:27:08.000Z</time>
      </trkpt>
      <trkpt lat="43.615548" lon="-73.617492">
        <ele>118.680873</ele>
        <time>2026-06-13T08:27:12.000Z</time>
      </trkpt>
      <trkpt lat="43.614725" lon="-73.617298">
        <ele>117.38328</ele>
        <time>2026-06-13T08:27:21.000Z</time>
      </trkpt>
      <trkpt lat="43.61442" lon="-73.617165">
        <ele>116.884959</ele>
        <time>2026-06-13T08:27:25.000Z</time>
      </trkpt>
      <trkpt lat="43.614204" lon="-73.616971">
        <ele>116.46929</ele>
        <time>2026-06-13T08:27:28.000Z</time>
      </trkpt>
      <trkpt lat="43.613982" lon="-73.61668">
        <ele>115.991185</ele>
        <time>2026-06-13T08:27:31.000Z</time>
      </trkpt>
      <trkpt lat="43.613809" lon="-73.616319">
        <ele>115.605275</ele>
        <time>2026-06-13T08:27:34.000Z</time>
      </trkpt>
      <trkpt lat="43.613764" lon="-73.615984">
        <ele>115.288812</ele>
        <time>2026-06-13T08:27:37.000Z</time>
      </trkpt>
      <trkpt lat="43.61374" lon="-73.615671">
        <ele>115.007369</ele>
        <time>2026-06-13T08:27:40.000Z</time>
      </trkpt>
      <trkpt lat="43.613781" lon="-73.61537">
        <ele>114.720787</ele>
        <time>2026-06-13T08:27:42.000Z</time>
      </trkpt>
      <trkpt lat="43.613862" lon="-73.615">
        <ele>114.360079</ele>
        <time>2026-06-13T08:27:45.000Z</time>
      </trkpt>
      <trkpt lat="43.613991" lon="-73.614724">
        <ele>114.063537</ele>
        <time>2026-06-13T08:27:48.000Z</time>
      </trkpt>
      <trkpt lat="43.614244" lon="-73.614357">
        <ele>113.659132</ele>
        <time>2026-06-13T08:27:52.000Z</time>
      </trkpt>
      <trkpt lat="43.614502" lon="-73.614088">
        <ele>113.437887</ele>
        <time>2026-06-13T08:27:56.000Z</time>
      </trkpt>
      <trkpt lat="43.616146" lon="-73.612788">
        <ele>111.757154</ele>
        <time>2026-06-13T08:28:17.000Z</time>
      </trkpt>
      <trkpt lat="43.616794" lon="-73.612076">
        <ele>110.543668</ele>
        <time>2026-06-13T08:28:26.000Z</time>
      </trkpt>
      <trkpt lat="43.617123" lon="-73.611806">
        <ele>109.968922</ele>
        <time>2026-06-13T08:28:30.000Z</time>
      </trkpt>
      <trkpt lat="43.621242" lon="-73.609747">
        <ele>104.339597</ele>
        <time>2026-06-13T08:29:19.000Z</time>
      </trkpt>
      <trkpt lat="43.621873" lon="-73.609334">
        <ele>103.98716</ele>
        <time>2026-06-13T08:29:27.000Z</time>
      </trkpt>
      <trkpt lat="43.622307" lon="-73.60913">
        <ele>103.85555</ele>
        <time>2026-06-13T08:29:32.000Z</time>
      </trkpt>
      <trkpt lat="43.625772" lon="-73.60831">
        <ele>107.531993</ele>
        <time>2026-06-13T08:30:11.000Z</time>
      </trkpt>
      <trkpt lat="43.626142" lon="-73.608172">
        <ele>108.204283</ele>
        <time>2026-06-13T08:30:15.000Z</time>
      </trkpt>
      <trkpt lat="43.626441" lon="-73.607983">
        <ele>108.819515</ele>
        <time>2026-06-13T08:30:19.000Z</time>
      </trkpt>
      <trkpt lat="43.626836" lon="-73.607682">
        <ele>109.648962</ele>
        <time>2026-06-13T08:30:24.000Z</time>
      </trkpt>
      <trkpt lat="43.627342" lon="-73.607392">
        <ele>110.634336</ele>
        <time>2026-06-13T08:30:30.000Z</time>
      </trkpt>
      <trkpt lat="43.627706" lon="-73.607331">
        <ele>112.350799</ele>
        <time>2026-06-13T08:30:34.000Z</time>
      </trkpt>
      <trkpt lat="43.628002" lon="-73.607356">
        <ele>114.051905</ele>
        <time>2026-06-13T08:30:37.000Z</time>
      </trkpt>
      <trkpt lat="43.628228" lon="-73.607428">
        <ele>115.354151</ele>
        <time>2026-06-13T08:30:40.000Z</time>
      </trkpt>
      <trkpt lat="43.628663" lon="-73.607767">
        <ele>118.171771</ele>
        <time>2026-06-13T08:30:46.000Z</time>
      </trkpt>
      <trkpt lat="43.629274" lon="-73.608464">
        <ele>121.733073</ele>
        <time>2026-06-13T08:30:55.000Z</time>
      </trkpt>
      <trkpt lat="43.62996" lon="-73.608965">
        <ele>123.499407</ele>
        <time>2026-06-13T08:31:04.000Z</time>
      </trkpt>
      <trkpt lat="43.630459" lon="-73.609207">
        <ele>124.730273</ele>
        <time>2026-06-13T08:31:10.000Z</time>
      </trkpt>
      <trkpt lat="43.63098" lon="-73.609659">
        <ele>125.308399</ele>
        <time>2026-06-13T08:31:17.000Z</time>
      </trkpt>
      <trkpt lat="43.631122" lon="-73.609876">
        <ele>125.354773</ele>
        <time>2026-06-13T08:31:19.000Z</time>
      </trkpt>
      <trkpt lat="43.631665" lon="-73.610224">
        <ele>125.48806</ele>
        <time>2026-06-13T08:31:26.000Z</time>
      </trkpt>
      <trkpt lat="43.632524" lon="-73.610629">
        <ele>125.575285</ele>
        <time>2026-06-13T08:31:36.000Z</time>
      </trkpt>
      <trkpt lat="43.632761" lon="-73.610609">
        <ele>125.548763</ele>
        <time>2026-06-13T08:31:39.000Z</time>
      </trkpt>
      <trkpt lat="43.632534" lon="-73.610641">
        <ele>125.522252</ele>
        <time>2026-06-13T08:31:42.000Z</time>
      </trkpt>
      <trkpt lat="43.631672" lon="-73.610234">
        <ele>125.414653</ele>
        <time>2026-06-13T08:31:52.000Z</time>
      </trkpt>
      <trkpt lat="43.631119" lon="-73.609884">
        <ele>125.190609</ele>
        <time>2026-06-13T08:31:59.000Z</time>
      </trkpt>
      <trkpt lat="43.630973" lon="-73.609659">
        <ele>125.103033</ele>
        <time>2026-06-13T08:32:01.000Z</time>
      </trkpt>
      <trkpt lat="43.630445" lon="-73.609215">
        <ele>124.84483</ele>
        <time>2026-06-13T08:32:08.000Z</time>
      </trkpt>
      <trkpt lat="43.629963" lon="-73.608966">
        <ele>124.357017</ele>
        <time>2026-06-13T08:32:14.000Z</time>
      </trkpt>
      <trkpt lat="43.629283" lon="-73.608465">
        <ele>121.241595</ele>
        <time>2026-06-13T08:32:23.000Z</time>
      </trkpt>
      <trkpt lat="43.628651" lon="-73.607761">
        <ele>117.959354</ele>
        <time>2026-06-13T08:32:32.000Z</time>
      </trkpt>
      <trkpt lat="43.628225" lon="-73.607422">
        <ele>115.687716</ele>
        <time>2026-06-13T08:32:37.000Z</time>
      </trkpt>
      <trkpt lat="43.628007" lon="-73.607361">
        <ele>114.583031</ele>
        <time>2026-06-13T08:32:39.000Z</time>
      </trkpt>
      <trkpt lat="43.627711" lon="-73.607317">
        <ele>113.13999</ele>
        <time>2026-06-13T08:32:42.000Z</time>
      </trkpt>
      <trkpt lat="43.627338" lon="-73.607392">
        <ele>111.343955</ele>
        <time>2026-06-13T08:32:46.000Z</time>
      </trkpt>
      <trkpt lat="43.626842" lon="-73.607689">
        <ele>108.739294</ele>
        <time>2026-06-13T08:32:52.000Z</time>
      </trkpt>
      <trkpt lat="43.626433" lon="-73.60799">
        <ele>108.250842</ele>
        <time>2026-06-13T08:32:57.000Z</time>
      </trkpt>
      <trkpt lat="43.626124" lon="-73.608183">
        <ele>107.959356</ele>
        <time>2026-06-13T08:33:01.000Z</time>
      </trkpt>
      <trkpt lat="43.625781" lon="-73.608313">
        <ele>107.636515</ele>
        <time>2026-06-13T08:33:05.000Z</time>
      </trkpt>
      <trkpt lat="43.622309" lon="-73.609141">
        <ele>104.179088</ele>
        <time>2026-06-13T08:33:44.000Z</time>
      </trkpt>
      <trkpt lat="43.621864" lon="-73.609339">
        <ele>103.866864</ele>
        <time>2026-06-13T08:33:49.000Z</time>
      </trkpt>
      <trkpt lat="43.621249" lon="-73.609758">
        <ele>104.197015</ele>
        <time>2026-06-13T08:33:57.000Z</time>
      </trkpt>
      <trkpt lat="43.617137" lon="-73.611808">
        <ele>110.099344</ele>
        <time>2026-06-13T08:34:46.000Z</time>
      </trkpt>
      <trkpt lat="43.616789" lon="-73.612078">
        <ele>110.740712</ele>
        <time>2026-06-13T08:34:50.000Z</time>
      </trkpt>
      <trkpt lat="43.616145" lon="-73.612779">
        <ele>111.687619</ele>
        <time>2026-06-13T08:34:59.000Z</time>
      </trkpt>
      <trkpt lat="43.614509" lon="-73.614091">
        <ele>113.511844</ele>
        <time>2026-06-13T08:35:20.000Z</time>
      </trkpt>
      <trkpt lat="43.614242" lon="-73.614368">
        <ele>113.825385</ele>
        <time>2026-06-13T08:35:24.000Z</time>
      </trkpt>
      <trkpt lat="43.613978" lon="-73.614729">
        <ele>114.168228</ele>
        <time>2026-06-13T08:35:28.000Z</time>
      </trkpt>
      <trkpt lat="43.613859" lon="-73.615001">
        <ele>114.388556</ele>
        <time>2026-06-13T08:35:31.000Z</time>
      </trkpt>
      <trkpt lat="43.613772" lon="-73.615375">
        <ele>114.702426</ele>
        <time>2026-06-13T08:35:34.000Z</time>
      </trkpt>
      <trkpt lat="43.613737" lon="-73.61567">
        <ele>115.002485</ele>
        <time>2026-06-13T08:35:36.000Z</time>
      </trkpt>
      <trkpt lat="43.613762" lon="-73.61599">
        <ele>115.297151</ele>
        <time>2026-06-13T08:35:39.000Z</time>
      </trkpt>
      <trkpt lat="43.613811" lon="-73.616324">
        <ele>115.628492</ele>
        <time>2026-06-13T08:35:42.000Z</time>
      </trkpt>
      <trkpt lat="43.61398" lon="-73.616669">
        <ele>116.032546</ele>
        <time>2026-06-13T08:35:45.000Z</time>
      </trkpt>
      <trkpt lat="43.614198" lon="-73.616983">
        <ele>116.439435</ele>
        <time>2026-06-13T08:35:49.000Z</time>
      </trkpt>
      <trkpt lat="43.61442" lon="-73.617168">
        <ele>116.790919</ele>
        <time>2026-06-13T08:35:52.000Z</time>
      </trkpt>
      <trkpt lat="43.614735" lon="-73.617298">
        <ele>117.297135</ele>
        <time>2026-06-13T08:35:56.000Z</time>
      </trkpt>
      <trkpt lat="43.615537" lon="-73.61749">
        <ele>118.728768</ele>
        <time>2026-06-13T08:36:05.000Z</time>
      </trkpt>
      <trkpt lat="43.615878" lon="-73.617711">
        <ele>119.389078</ele>
        <time>2026-06-13T08:36:09.000Z</time>
      </trkpt>
      <trkpt lat="43.616145" lon="-73.617994">
        <ele>119.972191</ele>
        <time>2026-06-13T08:36:13.000Z</time>
      </trkpt>
      <trkpt lat="43.616315" lon="-73.618277">
        <ele>120.404781</ele>
        <time>2026-06-13T08:36:16.000Z</time>
      </trkpt>
      <trkpt lat="43.616412" lon="-73.618581">
        <ele>120.819171</ele>
        <time>2026-06-13T08:36:19.000Z</time>
      </trkpt>
      <trkpt lat="43.616487" lon="-73.618875">
        <ele>121.211019</ele>
        <time>2026-06-13T08:36:22.000Z</time>
      </trkpt>
      <trkpt lat="43.616485" lon="-73.619368">
        <ele>121.806778</ele>
        <time>2026-06-13T08:36:26.000Z</time>
      </trkpt>
      <trkpt lat="43.616455" lon="-73.619634">
        <ele>122.146134</ele>
        <time>2026-06-13T08:36:28.000Z</time>
      </trkpt>
      <trkpt lat="43.616277" lon="-73.620149">
        <ele>122.859126</ele>
        <time>2026-06-13T08:36:33.000Z</time>
      </trkpt>
      <trkpt lat="43.616113" lon="-73.620427">
        <ele>123.004408</ele>
        <time>2026-06-13T08:36:36.000Z</time>
      </trkpt>
      <trkpt lat="43.615045" lon="-73.621641">
        <ele>121.666254</ele>
        <time>2026-06-13T08:36:51.000Z</time>
      </trkpt>
      <trkpt lat="43.614947" lon="-73.62172">
        <ele>121.560234</ele>
        <time>2026-06-13T08:36:52.000Z</time>
      </trkpt>
      <trkpt lat="43.614465" lon="-73.622274">
        <ele>120.915455</ele>
        <time>2026-06-13T08:36:59.000Z</time>
      </trkpt>
      <trkpt lat="43.613236" lon="-73.623682">
        <ele>119.22594</ele>
        <time>2026-06-13T08:37:17.000Z</time>
      </trkpt>
      <trkpt lat="43.612637" lon="-73.624519">
        <ele>118.257464</ele>
        <time>2026-06-13T08:37:26.000Z</time>
      </trkpt>
      <trkpt lat="43.611292" lon="-73.62705">
        <ele>115.65337</ele>
        <time>2026-06-13T08:37:51.000Z</time>
      </trkpt>
      <trkpt lat="43.611149" lon="-73.627276">
        <ele>115.395628</ele>
        <time>2026-06-13T08:37:53.000Z</time>
      </trkpt>
      <trkpt lat="43.610878" lon="-73.627586">
        <ele>114.810924</ele>
        <time>2026-06-13T08:37:57.000Z</time>
      </trkpt>
      <trkpt lat="43.610612" lon="-73.627807">
        <ele>114.293739</ele>
        <time>2026-06-13T08:38:00.000Z</time>
      </trkpt>
      <trkpt lat="43.610262" lon="-73.628016">
        <ele>113.658584</ele>
        <time>2026-06-13T08:38:04.000Z</time>
      </trkpt>
      <trkpt lat="43.609977" lon="-73.628126">
        <ele>113.16785</ele>
        <time>2026-06-13T08:38:07.000Z</time>
      </trkpt>
      <trkpt lat="43.609739" lon="-73.628135">
        <ele>112.781751</ele>
        <time>2026-06-13T08:38:10.000Z</time>
      </trkpt>
      <trkpt lat="43.609378" lon="-73.628169">
        <ele>111.996965</ele>
        <time>2026-06-13T08:38:14.000Z</time>
      </trkpt>
      <trkpt lat="43.608378" lon="-73.627956">
        <ele>108.983183</ele>
        <time>2026-06-13T08:38:25.000Z</time>
      </trkpt>
      <trkpt lat="43.607597" lon="-73.627863">
        <ele>106.817398</ele>
        <time>2026-06-13T08:38:34.000Z</time>
      </trkpt>
      <trkpt lat="43.60703" lon="-73.62793">
        <ele>105.830953</ele>
        <time>2026-06-13T08:38:40.000Z</time>
      </trkpt>
      <trkpt lat="43.606794" lon="-73.628001">
        <ele>105.42346</ele>
        <time>2026-06-13T08:38:43.000Z</time>
      </trkpt>
      <trkpt lat="43.606554" lon="-73.628123">
        <ele>105.014133</ele>
        <time>2026-06-13T08:38:46.000Z</time>
      </trkpt>
      <trkpt lat="43.606157" lon="-73.628326">
        <ele>104.293599</ele>
        <time>2026-06-13T08:38:51.000Z</time>
      </trkpt>
      <trkpt lat="43.605778" lon="-73.628617">
        <ele>104.359441</ele>
        <time>2026-06-13T08:38:56.000Z</time>
      </trkpt>
      <trkpt lat="43.605591" lon="-73.628827">
        <ele>104.760097</ele>
        <time>2026-06-13T08:38:59.000Z</time>
      </trkpt>
      <trkpt lat="43.604745" lon="-73.629773">
        <ele>106.589732</ele>
        <time>2026-06-13T08:39:11.000Z</time>
      </trkpt>
      <trkpt lat="43.604482" lon="-73.63014">
        <ele>107.55874</ele>
        <time>2026-06-13T08:39:15.000Z</time>
      </trkpt>
      <trkpt lat="43.604251" lon="-73.630549">
        <ele>108.989405</ele>
        <time>2026-06-13T08:39:19.000Z</time>
      </trkpt>
      <trkpt lat="43.60399" lon="-73.631288">
        <ele>111.364236</ele>
        <time>2026-06-13T08:39:26.000Z</time>
      </trkpt>
      <trkpt lat="43.603902" lon="-73.631748">
        <ele>112.713313</ele>
        <time>2026-06-13T08:39:30.000Z</time>
      </trkpt>
      <trkpt lat="43.603856" lon="-73.631996">
        <ele>113.467857</ele>
        <time>2026-06-13T08:39:32.000Z</time>
      </trkpt>
      <trkpt lat="43.603663" lon="-73.632841">
        <ele>116.139159</ele>
        <time>2026-06-13T08:39:39.000Z</time>
      </trkpt>
      <trkpt lat="43.603443" lon="-73.633406">
        <ele>118.058873</ele>
        <time>2026-06-13T08:39:44.000Z</time>
      </trkpt>
      <trkpt lat="43.603072" lon="-73.633978">
        <ele>120.389855</ele>
        <time>2026-06-13T08:39:50.000Z</time>
      </trkpt>
      <trkpt lat="43.60282" lon="-73.634298">
        <ele>121.903939</ele>
        <time>2026-06-13T08:39:54.000Z</time>
      </trkpt>
      <trkpt lat="43.602465" lon="-73.6346">
        <ele>123.623247</ele>
        <time>2026-06-13T08:39:59.000Z</time>
      </trkpt>
      <trkpt lat="43.601987" lon="-73.634896">
        <ele>125.806976</ele>
        <time>2026-06-13T08:40:05.000Z</time>
      </trkpt>
      <trkpt lat="43.600923" lon="-73.635342">
        <ele>129.368274</ele>
        <time>2026-06-13T08:40:17.000Z</time>
      </trkpt>
      <trkpt lat="43.600564" lon="-73.635576">
        <ele>129.465376</ele>
        <time>2026-06-13T08:40:21.000Z</time>
      </trkpt>
      <trkpt lat="43.600123" lon="-73.635958">
        <ele>129.597853</ele>
        <time>2026-06-13T08:40:27.000Z</time>
      </trkpt>
      <trkpt lat="43.599688" lon="-73.636231">
        <ele>129.719306</ele>
        <time>2026-06-13T08:40:32.000Z</time>
      </trkpt>
      <trkpt lat="43.59803" lon="-73.63664">
        <ele>129.615043</ele>
        <time>2026-06-13T08:40:51.000Z</time>
      </trkpt>
      <trkpt lat="43.59741" lon="-73.636848">
        <ele>129.021836</ele>
        <time>2026-06-13T08:40:58.000Z</time>
      </trkpt>
      <trkpt lat="43.596926" lon="-73.637163">
        <ele>128.264516</ele>
        <time>2026-06-13T08:41:04.000Z</time>
      </trkpt>
      <trkpt lat="43.596504" lon="-73.637549">
        <ele>127.560718</ele>
        <time>2026-06-13T08:41:10.000Z</time>
      </trkpt>
      <trkpt lat="43.595979" lon="-73.638164">
        <ele>127.155623</ele>
        <time>2026-06-13T08:41:18.000Z</time>
      </trkpt>
      <trkpt lat="43.595948" lon="-73.638218">
        <ele>127.167033</ele>
        <time>2026-06-13T08:41:19.000Z</time>
      </trkpt>
      <trkpt lat="43.59559" lon="-73.638541">
        <ele>127.240511</ele>
        <time>2026-06-13T08:41:24.000Z</time>
      </trkpt>
      <trkpt lat="43.59501" lon="-73.638971">
        <ele>127.359074</ele>
        <time>2026-06-13T08:41:31.000Z</time>
      </trkpt>
      <trkpt lat="43.593239" lon="-73.640273">
        <ele>128.8786</ele>
        <time>2026-06-13T08:41:53.000Z</time>
      </trkpt>
      <trkpt lat="43.592165" lon="-73.641159">
        <ele>132.43599</ele>
        <time>2026-06-13T08:42:07.000Z</time>
      </trkpt>
      <trkpt lat="43.591922" lon="-73.641317">
        <ele>133.265302</ele>
        <time>2026-06-13T08:42:10.000Z</time>
      </trkpt>
      <trkpt lat="43.591662" lon="-73.641425">
        <ele>134.075035</ele>
        <time>2026-06-13T08:42:13.000Z</time>
      </trkpt>
      <trkpt lat="43.590706" lon="-73.641771">
        <ele>138.228202</ele>
        <time>2026-06-13T08:42:24.000Z</time>
      </trkpt>
      <trkpt lat="43.590271" lon="-73.641983">
        <ele>140.214425</ele>
        <time>2026-06-13T08:42:29.000Z</time>
      </trkpt>
      <trkpt lat="43.59006" lon="-73.642094">
        <ele>141.205879</ele>
        <time>2026-06-13T08:42:32.000Z</time>
      </trkpt>
      <trkpt lat="43.589472" lon="-73.642558">
        <ele>141.774355</ele>
        <time>2026-06-13T08:42:40.000Z</time>
      </trkpt>
      <trkpt lat="43.589095" lon="-73.64286">
        <ele>141.333108</ele>
        <time>2026-06-13T08:42:45.000Z</time>
      </trkpt>
      <trkpt lat="43.588644" lon="-73.64324">
        <ele>140.781025</ele>
        <time>2026-06-13T08:42:51.000Z</time>
      </trkpt>
      <trkpt lat="43.587586" lon="-73.644116">
        <ele>141.745823</ele>
        <time>2026-06-13T08:43:05.000Z</time>
      </trkpt>
      <trkpt lat="43.586863" lon="-73.644674">
        <ele>143.107622</ele>
        <time>2026-06-13T08:43:14.000Z</time>
      </trkpt>
      <trkpt lat="43.586429" lon="-73.644969">
        <ele>144.409015</ele>
        <time>2026-06-13T08:43:19.000Z</time>
      </trkpt>
      <trkpt lat="43.586024" lon="-73.645223">
        <ele>145.708967</ele>
        <time>2026-06-13T08:43:24.000Z</time>
      </trkpt>
      <trkpt lat="43.585718" lon="-73.645495">
        <ele>146.833869</ele>
        <time>2026-06-13T08:43:28.000Z</time>
      </trkpt>
      <trkpt lat="43.585268" lon="-73.645918">
        <ele>148.471617</ele>
        <time>2026-06-13T08:43:34.000Z</time>
      </trkpt>
      <trkpt lat="43.585035" lon="-73.646203">
        <ele>149.526885</ele>
        <time>2026-06-13T08:43:37.000Z</time>
      </trkpt>
      <trkpt lat="43.584978" lon="-73.646294">
        <ele>149.907048</ele>
        <time>2026-06-13T08:43:38.000Z</time>
      </trkpt>
      <trkpt lat="43.584656" lon="-73.646739">
        <ele>151.600387</ele>
        <time>2026-06-13T08:43:43.000Z</time>
      </trkpt>
      <trkpt lat="43.584401" lon="-73.647223">
        <ele>153.167966</ele>
        <time>2026-06-13T08:43:48.000Z</time>
      </trkpt>
      <trkpt lat="43.584181" lon="-73.647748">
        <ele>154.810288</ele>
        <time>2026-06-13T08:43:53.000Z</time>
      </trkpt>
      <trkpt lat="43.58404" lon="-73.648061">
        <ele>155.957962</ele>
        <time>2026-06-13T08:43:56.000Z</time>
      </trkpt>
      <trkpt lat="43.583815" lon="-73.648699">
        <ele>158.523027</ele>
        <time>2026-06-13T08:44:02.000Z</time>
      </trkpt>
      <trkpt lat="43.583813" lon="-73.64872">
        <ele>158.607201</ele>
        <time>2026-06-13T08:44:02.000Z</time>
      </trkpt>
      <trkpt lat="43.583246" lon="-73.65018">
        <ele>164.693339</ele>
        <time>2026-06-13T08:44:15.000Z</time>
      </trkpt>
      <trkpt lat="43.582836" lon="-73.650947">
        <ele>168.962856</ele>
        <time>2026-06-13T08:44:23.000Z</time>
      </trkpt>
      <trkpt lat="43.582636" lon="-73.651242">
        <ele>170.806101</ele>
        <time>2026-06-13T08:44:26.000Z</time>
      </trkpt>
      <trkpt lat="43.58221" lon="-73.651671">
        <ele>174.065608</ele>
        <time>2026-06-13T08:44:32.000Z</time>
      </trkpt>
      <trkpt lat="43.581665" lon="-73.652116">
        <ele>176.522818</ele>
        <time>2026-06-13T08:44:39.000Z</time>
      </trkpt>
      <trkpt lat="43.581412" lon="-73.652206">
        <ele>177.078586</ele>
        <time>2026-06-13T08:44:42.000Z</time>
      </trkpt>
      <trkpt lat="43.581038" lon="-73.652326">
        <ele>177.921448</ele>
        <time>2026-06-13T08:44:46.000Z</time>
      </trkpt>
      <trkpt lat="43.580516" lon="-73.652459">
        <ele>179.093541</ele>
        <time>2026-06-13T08:44:52.000Z</time>
      </trkpt>
      <trkpt lat="43.578994" lon="-73.652726">
        <ele>179.308556</ele>
        <time>2026-06-13T08:45:09.000Z</time>
      </trkpt>
      <trkpt lat="43.577839" lon="-73.653077">
        <ele>179.898846</ele>
        <time>2026-06-13T08:45:22.000Z</time>
      </trkpt>
      <trkpt lat="43.577226" lon="-73.653356">
        <ele>180.594368</ele>
        <time>2026-06-13T08:45:29.000Z</time>
      </trkpt>
      <trkpt lat="43.576672" lon="-73.653684">
        <ele>180.83852</ele>
        <time>2026-06-13T08:45:36.000Z</time>
      </trkpt>
      <trkpt lat="43.576179" lon="-73.653923">
        <ele>179.750089</ele>
        <time>2026-06-13T08:45:42.000Z</time>
      </trkpt>
      <trkpt lat="43.575624" lon="-73.654095">
        <ele>178.579283</ele>
        <time>2026-06-13T08:45:48.000Z</time>
      </trkpt>
      <trkpt lat="43.575421" lon="-73.654149">
        <ele>178.148759</ele>
        <time>2026-06-13T08:45:50.000Z</time>
      </trkpt>
      <trkpt lat="43.574497" lon="-73.654294">
        <ele>174.392293</ele>
        <time>2026-06-13T08:46:00.000Z</time>
      </trkpt>
      <trkpt lat="43.573455" lon="-73.654472">
        <ele>168.76621</ele>
        <time>2026-06-13T08:46:12.000Z</time>
      </trkpt>
      <trkpt lat="43.572909" lon="-73.654502">
        <ele>165.287797</ele>
        <time>2026-06-13T08:46:18.000Z</time>
      </trkpt>
      <trkpt lat="43.57238" lon="-73.654455">
        <ele>161.608517</ele>
        <time>2026-06-13T08:46:24.000Z</time>
      </trkpt>
      <trkpt lat="43.571456" lon="-73.654088">
        <ele>154.79857</ele>
        <time>2026-06-13T08:46:35.000Z</time>
      </trkpt>
      <trkpt lat="43.571108" lon="-73.653927">
        <ele>152.208733</ele>
        <time>2026-06-13T08:46:39.000Z</time>
      </trkpt>
      <trkpt lat="43.570158" lon="-73.653515">
        <ele>144.874815</ele>
        <time>2026-06-13T08:46:50.000Z</time>
      </trkpt>
      <trkpt lat="43.569932" lon="-73.653424">
        <ele>143.065083</ele>
        <time>2026-06-13T08:46:53.000Z</time>
      </trkpt>
      <trkpt lat="43.569619" lon="-73.653344">
        <ele>141.200508</ele>
        <time>2026-06-13T08:46:57.000Z</time>
      </trkpt>
      <trkpt lat="43.569115" lon="-73.653326">
        <ele>138.748397</ele>
        <time>2026-06-13T08:47:03.000Z</time>
      </trkpt>
      <trkpt lat="43.569014" lon="-73.653324">
        <ele>138.268756</ele>
        <time>2026-06-13T08:47:04.000Z</time>
      </trkpt>
      <trkpt lat="43.568555" lon="-73.653412">
        <ele>136.059182</ele>
        <time>2026-06-13T08:47:09.000Z</time>
      </trkpt>
      <trkpt lat="43.567894" lon="-73.653701">
        <ele>132.971652</ele>
        <time>2026-06-13T08:47:17.000Z</time>
      </trkpt>
      <trkpt lat="43.567221" lon="-73.653958">
        <ele>131.069733</ele>
        <time>2026-06-13T08:47:25.000Z</time>
      </trkpt>
      <trkpt lat="43.567013" lon="-73.653999">
        <ele>130.484712</ele>
        <time>2026-06-13T08:47:27.000Z</time>
      </trkpt>
      <trkpt lat="43.566723" lon="-73.654035">
        <ele>129.702809</ele>
        <time>2026-06-13T08:47:30.000Z</time>
      </trkpt>
      <trkpt lat="43.566147" lon="-73.653953">
        <ele>127.542042</ele>
        <time>2026-06-13T08:47:36.000Z</time>
      </trkpt>
      <trkpt lat="43.565814" lon="-73.653835">
        <ele>125.001766</ele>
        <time>2026-06-13T08:47:40.000Z</time>
      </trkpt>
      <trkpt lat="43.565423" lon="-73.6536">
        <ele>121.659051</ele>
        <time>2026-06-13T08:47:45.000Z</time>
      </trkpt>
      <trkpt lat="43.564873" lon="-73.653348">
        <ele>117.302685</ele>
        <time>2026-06-13T08:47:51.000Z</time>
      </trkpt>
      <trkpt lat="43.564239" lon="-73.653186">
        <ele>113.534307604</ele>
        <time>2026-06-13T08:47:58.000Z</time>
      </trkpt>
      <trkpt lat="43.564032" lon="-73.653149">
        <ele>112.314394875</ele>
        <time>2026-06-13T08:48:00.000Z</time>
      </trkpt>
      <trkpt lat="43.563471" lon="-73.65307">
        <ele>109.018615802</ele>
        <time>2026-06-13T08:48:06.000Z</time>
      </trkpt>
      <trkpt lat="43.563302" lon="-73.653049">
        <ele>108.026902665</ele>
        <time>2026-06-13T08:48:08.000Z</time>
      </trkpt>
      <trkpt lat="43.562978" lon="-73.653075">
        <ele>106.130092049</ele>
        <time>2026-06-13T08:48:12.000Z</time>
      </trkpt>
      <trkpt lat="43.562612" lon="-73.653155">
        <ele>103.964347175</ele>
        <time>2026-06-13T08:48:16.000Z</time>
      </trkpt>
      <trkpt lat="43.562519" lon="-73.653172">
        <ele>103.416062941</ele>
        <time>2026-06-13T08:48:17.000Z</time>
      </trkpt>
      <trkpt lat="43.562516" lon="-73.653188">
        <ele>103.346070539</ele>
        <time>2026-06-13T08:48:17.000Z</time>
      </trkpt>
    </trkseg>
  </trk>
</gpx>

<!--
Performance optimized by W3 Total Cache. Learn more: https://www.boldgrid.com/w3-total-cache/?utm_source=w3tc&utm_medium=footer_comment&utm_campaign=free_plugin

Page Caching using Disk: Enhanced{w3tc_pagecache_reject_reason} 

Served from: www.aquabike.world @ 2026-05-10 17:54:43 by W3 Total Cache
-->